Time;durP1;ratioP1;P1;durP2;ratioP2;P2;SDS_P1;SDS_P2;PMS_P1;PMS_P2;Temp;Humidity;BMP_temperature;BMP_pressure;BME280_temperature;BME280_humidity;BME280_pressure;Samples;Min_cycle;Max_cycle;Signal;HPM_P1;HPM_P2
2022/06/28 00:00:34;;;;;;;6.50;4.60;;;;;;;15.20;100.00;99577.72;5032395;28;20201;-80
2022/06/28 00:03:03;;;;;;;6.27;4.40;;;;;;;15.22;100.00;99581.13;5028430;28;20193;-80
2022/06/28 00:05:33;;;;;;;6.03;4.23;;;;;;;15.29;100.00;99579.69;5032535;28;20198;-80
2022/06/28 00:08:01;;;;;;;6.67;4.53;;;;;;;15.22;100.00;99589.13;5037722;28;20301;-80
2022/06/28 00:10:30;;;;;;;7.33;5.47;;;;;;;15.29;100.00;99591.22;5034290;28;20210;-80
2022/06/28 00:12:59;;;;;;;8.40;5.10;;;;;;;15.27;100.00;99601.16;5030822;28;20190;-80
2022/06/28 00:18:13;;;;;;;9.30;5.70;;;;;;;15.34;100.00;99591.72;5032375;28;20198;-80
2022/06/28 00:20:45;;;;;;;6.10;5.50;;;;;;;15.33;100.00;99587.34;5027294;28;20237;-80
2022/06/28 00:23:13;;;;;;;7.37;5.67;;;;;;;15.32;100.00;99595.47;5032224;28;20715;-80
2022/06/28 00:25:41;;;;;;;7.33;6.13;;;;;;;15.10;100.00;99602.44;5025704;28;20197;-79
2022/06/28 00:28:09;;;;;;;6.20;5.60;;;;;;;15.27;100.00;99592.31;5032888;28;20221;-80
2022/06/28 00:30:38;;;;;;;6.33;5.53;;;;;;;15.34;100.00;99602.38;5043541;28;20254;-80
2022/06/28 00:33:06;;;;;;;7.10;5.77;;;;;;;15.28;100.00;99602.03;5031987;28;20197;-80
2022/06/28 00:35:35;;;;;;;6.00;5.40;;;;;;;15.42;100.00;99604.47;5027379;28;20206;-80
2022/06/28 00:38:04;;;;;;;7.53;6.20;;;;;;;15.50;100.00;99609.22;5028234;28;20197;-79
2022/06/28 00:40:34;;;;;;;6.37;5.70;;;;;;;15.51;100.00;99614.44;5031298;28;20205;-80
2022/06/28 00:43:02;;;;;;;5.80;5.20;;;;;;;15.59;100.00;99628.06;5024014;28;20208;-80
2022/06/28 00:45:30;;;;;;;9.10;6.00;;;;;;;15.68;100.00;99621.19;5029598;28;20190;-80
2022/06/28 00:47:59;;;;;;;7.33;4.87;;;;;;;15.56;100.00;99630.13;5031421;28;20696;-80
2022/06/28 00:50:28;;;;;;;7.83;5.33;;;;;;;15.54;100.00;99637.38;5031279;28;20209;-80
2022/06/28 00:53:00;;;;;;;7.67;5.53;;;;;;;15.58;100.00;99645.06;5030204;28;20198;-80
2022/06/28 00:55:31;;;;;;;7.53;5.70;;;;;;;15.67;100.00;99644.38;5037789;27;20221;-80
2022/06/28 00:58:00;;;;;;;7.13;5.17;;;;;;;15.68;100.00;99651.41;5030235;28;20305;-80
2022/06/28 01:00:30;;;;;;;7.47;5.97;;;;;;;15.57;100.00;99650.53;5031724;28;20198;-81
2022/06/28 01:02:58;;;;;;;6.60;6.00;;;;;;;15.43;100.00;99652.41;5030190;28;20235;-80
2022/06/28 01:05:27;;;;;;;7.77;6.20;;;;;;;15.37;100.00;99654.72;5025714;28;20373;-80
2022/06/28 01:07:55;;;;;;;6.60;6.00;;;;;;;15.44;100.00;99664.81;5023267;28;20221;-80
2022/06/28 01:10:26;;;;;;;7.13;6.33;;;;;;;15.40;100.00;99667.81;5029196;28;20206;-80
2022/06/28 01:12:55;;;;;;;7.10;6.20;;;;;;;15.36;100.00;99667.19;5036287;27;20205;-80
2022/06/28 01:15:23;;;;;;;7.97;6.70;;;;;;;15.28;100.00;99664.25;5031256;28;20213;-80
2022/06/28 01:17:53;;;;;;;8.03;6.10;;;;;;;15.37;100.00;99668.91;5024832;28;20200;-80
2022/06/28 01:20:21;;;;;;;7.37;6.67;;;;;;;15.30;100.00;99667.66;5030713;28;20270;-80
2022/06/28 01:22:53;;;;;;;7.17;6.37;;;;;;;15.43;100.00;99668.41;5031138;28;20190;-80
2022/06/28 01:25:22;;;;;;;7.00;6.27;;;;;;;15.28;100.00;99666.06;5029135;28;20198;-80
2022/06/28 01:27:51;;;;;;;7.10;5.97;;;;;;;15.34;100.00;99665.59;5031626;28;20213;-79
2022/06/28 01:30:20;;;;;;;6.47;5.87;;;;;;;15.27;100.00;99662.56;5024833;28;20213;-80
2022/06/28 01:32:49;;;;;;;7.10;5.67;;;;;;;15.23;100.00;99654.88;5030569;28;20201;-80
2022/06/28 01:35:17;;;;;;;7.73;5.90;;;;;;;14.96;100.00;99661.34;5030981;28;20235;-80
2022/06/28 01:37:48;;;;;;;9.13;6.10;;;;;;;14.76;100.00;99661.91;5022398;28;20198;-80
2022/06/28 01:40:18;;;;;;;7.70;6.07;;;;;;;14.43;100.00;99654.53;5027412;28;20193;-80
2022/06/28 01:42:46;;;;;;;6.83;5.83;;;;;;;14.47;100.00;99650.72;5032467;28;20282;-80
2022/06/28 01:45:16;;;;;;;7.97;6.40;;;;;;;14.35;100.00;99656.91;5030520;28;20210;-80
2022/06/28 01:47:45;;;;;;;7.90;6.77;;;;;;;14.46;100.00;99647.19;5068494;28;20695;-80
2022/06/28 01:50:13;;;;;;;8.30;6.53;;;;;;;14.41;100.00;99645.81;5057807;28;20219;-80
2022/06/28 01:52:43;;;;;;;7.40;6.10;;;;;;;14.40;100.00;99642.28;5067010;28;20189;-80
2022/06/28 01:55:12;;;;;;;6.87;5.93;;;;;;;14.33;100.00;99649.00;5071054;28;20203;-80
2022/06/28 01:57:41;;;;;;;8.90;6.40;;;;;;;14.45;100.00;99644.66;5067383;28;20222;-80
2022/06/28 02:00:11;;;;;;;11.63;7.60;;;;;;;14.29;100.00;99640.41;5071412;28;20200;-80
2022/06/28 02:02:39;;;;;;;7.60;6.90;;;;;;;14.27;100.00;99647.63;5066155;28;20211;-80
2022/06/28 02:05:09;;;;;;;9.23;6.87;;;;;;;14.23;100.00;99650.63;5057521;28;20305;-80
2022/06/28 02:07:37;;;;;;;8.23;6.90;;;;;;;14.26;100.00;99656.59;5030655;28;20224;-80
2022/06/28 02:10:06;;;;;;;8.73;6.40;;;;;;;14.26;100.00;99653.06;5027075;28;20246;-80
2022/06/28 02:12:35;;;;;;;7.57;6.30;;;;;;;14.15;100.00;99650.31;5024460;28;20350;-80
2022/06/28 02:15:07;;;;;;;7.77;6.60;;;;;;;14.09;100.00;99653.41;5026105;28;20212;-80
2022/06/28 02:17:35;;;;;;;7.30;6.50;;;;;;;14.09;100.00;99648.97;5075428;28;20198;-79
2022/06/28 02:20:04;;;;;;;7.47;6.77;;;;;;;14.09;100.00;99659.63;5027522;28;20205;-80
2022/06/28 02:22:32;;;;;;;9.23;5.97;;;;;;;14.12;100.00;99664.72;5031396;28;20197;-79
2022/06/28 02:25:01;;;;;;;9.00;6.33;;;;;;;14.25;100.00;99667.34;5029737;28;20209;-80
2022/06/28 02:27:29;;;;;;;6.83;6.23;;;;;;;14.16;100.00;99671.53;5079028;28;20224;-80
2022/06/28 02:29:57;;;;;;;9.33;6.40;;;;;;;14.19;100.00;99674.00;5030243;28;20659;-80
2022/06/28 02:32:27;;;;;;;8.37;6.93;;;;;;;14.04;100.00;99677.72;5028981;28;20189;-80
2022/06/28 02:40:26;;;;;;;7.73;6.17;;;;;;;14.07;100.00;99673.97;5030104;28;20200;-80
2022/06/28 02:42:57;;;;;;;6.50;5.90;;;;;;;14.17;100.00;99677.69;5026137;28;20645;-80
2022/06/28 02:45:29;;;;;;;6.77;6.07;;;;;;;14.09;100.00;99677.38;5030158;28;20205;-79
2022/06/28 02:47:59;;;;;;;7.67;5.53;;;;;;;13.97;100.00;99684.44;5028195;28;20232;-79
2022/06/28 02:50:28;;;;;;;5.57;5.00;;;;;;;13.81;100.00;99681.13;5028524;28;20205;-80
2022/06/28 02:52:56;;;;;;;5.93;5.33;;;;;;;13.72;100.00;99678.16;5030077;28;20198;-80
2022/06/28 02:55:25;;;;;;;8.03;6.10;;;;;;;13.52;100.00;99683.97;5030358;28;20201;-80
2022/06/28 02:57:53;;;;;;;7.23;6.20;;;;;;;13.51;100.00;99687.59;5028452;28;20690;-80
2022/06/28 03:00:21;;;;;;;7.47;6.13;;;;;;;13.59;100.00;99684.41;5029850;28;20213;-80
2022/06/28 03:02:51;;;;;;;8.37;6.23;;;;;;;13.56;100.00;99687.28;5027779;28;20194;-80
2022/06/28 03:05:22;;;;;;;9.07;6.10;;;;;;;13.46;100.00;99687.91;5035822;28;20201;-81
2022/06/28 03:07:51;;;;;;;6.77;5.90;;;;;;;13.57;100.00;99691.63;5031120;28;20225;-80
2022/06/28 03:10:19;;;;;;;6.73;5.70;;;;;;;13.52;100.00;99697.28;5033182;28;20228;-80
2022/06/28 03:12:48;;;;;;;6.80;5.80;;;;;;;13.49;100.00;99694.81;5031433;28;20192;-80
2022/06/28 03:15:16;;;;;;;7.47;5.80;;;;;;;13.55;100.00;99694.41;5030302;28;20197;-80
2022/06/28 03:17:49;;;;;;;7.87;4.90;;;;;;;13.55;100.00;99694.41;5029135;28;20202;-80
2022/06/28 03:20:18;;;;;;;7.73;6.03;;;;;;;13.41;100.00;99691.81;5032954;28;20194;-80
2022/06/28 03:22:47;;;;;;;6.77;5.50;;;;;;;13.56;100.00;99700.59;5032815;28;20304;-81
2022/06/28 03:25:16;;;;;;;6.33;5.73;;;;;;;13.52;100.00;99701.75;5032943;28;20297;-80
2022/06/28 03:27:44;;;;;;;8.27;5.63;;;;;;;13.22;100.00;99699.31;5029122;28;20190;-80
2022/06/28 03:30:14;;;;;;;6.53;5.87;;;;;;;13.34;100.00;99696.72;5033110;28;20235;-80
2022/06/28 03:32:42;;;;;;;7.27;6.57;;;;;;;13.33;100.00;99695.00;5037161;28;20197;-80
2022/06/28 03:35:11;;;;;;;7.63;6.77;;;;;;;13.45;100.00;99695.97;5033166;28;20198;-80
2022/06/28 03:37:39;;;;;;;8.30;6.23;;;;;;;13.54;100.00;99698.03;5033626;28;20217;-80
2022/06/28 03:40:10;;;;;;;9.03;5.43;;;;;;;13.62;100.00;99706.34;5032450;28;20221;-80
2022/06/28 03:42:39;;;;;;;7.23;6.20;;;;;;;13.51;100.00;99706.22;4995889;28;20272;-80
2022/06/28 03:45:08;;;;;;;7.73;6.23;;;;;;;13.51;100.00;99705.34;5036094;28;20197;-79
2022/06/28 03:47:37;;;;;;;6.77;5.97;;;;;;;13.32;100.00;99711.06;5030282;28;20312;-80
2022/06/28 03:50:06;;;;;;;5.70;5.20;;;;;;;13.16;100.00;99708.53;5032168;28;20217;-80
2022/06/28 03:52:34;;;;;;;6.20;4.93;;;;;;;13.05;100.00;99700.41;5032214;28;20318;-80
2022/06/28 03:55:03;;;;;;;5.93;5.33;;;;;;;13.13;100.00;99698.09;5032603;28;20190;-80
2022/06/28 03:57:32;;;;;;;8.43;5.73;;;;;;;13.25;100.00;99707.97;5029448;28;20186;-80
2022/06/28 04:00:01;;;;;;;8.63;6.60;;;;;;;13.40;100.00;99703.41;5032984;28;20190;-80
2022/06/28 04:02:29;;;;;;;7.90;6.07;;;;;;;13.52;100.00;99709.75;5040151;28;20197;-80
2022/06/28 04:04:57;;;;;;;7.93;7.13;;;;;;;13.58;100.00;99715.47;5035102;28;20190;-80
2022/06/28 04:07:25;;;;;;;8.13;6.17;;;;;;;13.68;100.00;99724.56;5030985;28;20206;-80
2022/06/28 04:09:54;;;;;;;8.40;6.40;;;;;;;13.45;100.00;99719.94;5032368;28;20719;-80
2022/06/28 04:12:22;;;;;;;7.20;6.17;;;;;;;13.50;100.00;99719.63;5030134;28;20342;-80
2022/06/28 04:14:52;;;;;;;6.90;5.90;;;;;;;13.44;100.00;99728.88;5027411;28;20194;-80
2022/06/28 04:17:20;;;;;;;8.57;6.27;;;;;;;13.55;100.00;99730.81;5032067;28;20201;-80
2022/06/28 04:19:48;;;;;;;6.53;5.83;;;;;;;13.64;100.00;99730.19;5032710;28;20198;-80
2022/06/28 04:22:16;;;;;;;6.87;6.10;;;;;;;13.77;100.00;99733.72;5028478;28;20197;-78
2022/06/28 04:24:45;;;;;;;12.30;6.13;;;;;;;13.51;100.00;99722.19;5030144;28;20190;-80
2022/06/28 04:27:13;;;;;;;6.80;5.60;;;;;;;13.69;100.00;99726.25;5028071;28;20218;-80
2022/06/28 04:29:41;;;;;;;6.33;5.73;;;;;;;13.74;100.00;99721.50;5032151;28;20213;-81
2022/06/28 04:32:11;;;;;;;8.27;6.47;;;;;;;13.93;100.00;99728.22;5036064;27;20197;-80
2022/06/28 04:34:39;;;;;;;6.40;5.57;;;;;;;13.92;100.00;99730.03;5034734;28;20198;-80
2022/06/28 04:37:07;;;;;;;7.00;5.67;;;;;;;14.03;100.00;99723.97;5031712;28;20209;-80
2022/06/28 04:39:36;;;;;;;6.60;6.00;;;;;;;14.06;100.00;99730.88;5029329;28;20193;-80
2022/06/28 04:42:05;;;;;;;6.77;5.40;;;;;;;14.07;100.00;99721.94;5031733;28;20209;-80
2022/06/28 04:44:33;;;;;;;7.53;5.70;;;;;;;14.12;100.00;99731.31;5028214;28;20201;-80
2022/06/28 04:47:02;;;;;;;7.70;5.30;;;;;;;14.17;100.00;99723.00;5029706;28;20226;-80
2022/06/28 04:49:32;;;;;;;6.90;5.60;;;;;;;14.20;100.00;99728.13;5027628;28;20220;-80
2022/06/28 04:52:00;;;;;;;8.00;6.50;;;;;;;14.24;100.00;99727.78;5038123;27;20640;-80
2022/06/28 04:54:29;;;;;;;8.13;6.37;;;;;;;14.25;100.00;99732.16;5028907;28;20209;-81
2022/06/28 04:56:57;;;;;;;10.57;7.37;;;;;;;14.28;100.00;99728.41;5030411;28;20229;-80
2022/06/28 04:59:31;;;;;;;8.93;8.03;;;;;;;14.36;100.00;99736.72;5034460;28;20223;-80
2022/06/28 05:01:59;;;;;;;8.27;7.33;;;;;;;14.57;100.00;99740.59;5015675;28;20197;-80
2022/06/28 05:04:27;;;;;;;7.90;7.10;;;;;;;14.51;100.00;99738.38;5030756;28;20225;-80
2022/06/28 05:06:57;;;;;;;9.00;8.10;;;;;;;14.52;100.00;99736.56;5035800;27;20229;-80
2022/06/28 05:09:25;;;;;;;10.30;8.23;;;;;;;14.69;100.00;99744.22;5092395;28;20212;-80
2022/06/28 05:12:03;;;;;;;12.23;9.73;;;;;;;14.79;100.00;99742.59;5087223;28;20195;-80
2022/06/28 05:14:31;;;;;;;11.43;9.10;;;;;;;14.95;100.00;99738.78;5087737;28;20184;-80
2022/06/28 05:16:59;;;;;;;12.93;8.20;;;;;;;14.97;100.00;99736.88;5084351;28;20661;-80
2022/06/28 05:19:28;;;;;;;8.20;5.90;;;;;;;15.15;100.00;99735.50;5089609;28;20249;-80
2022/06/28 05:21:58;;;;;;;11.80;6.60;;;;;;;15.14;100.00;99731.13;5089652;28;20191;-79
2022/06/28 05:24:27;;;;;;;10.43;7.43;;;;;;;15.21;100.00;99735.06;5087464;28;20663;-80
2022/06/28 05:26:55;;;;;;;7.93;6.97;;;;;;;15.12;100.00;99722.41;5075948;28;20664;-80
2022/06/28 05:29:23;;;;;;;9.17;8.10;;;;;;;15.31;100.00;99738.75;5030575;28;20228;-80
2022/06/28 05:31:51;;;;;;;12.33;8.00;;;;;;;15.32;100.00;99732.44;5026824;28;20198;-80
2022/06/28 05:34:20;;;;;;;9.10;8.13;;;;;;;15.43;100.00;99721.81;5032634;28;20190;-80
2022/06/28 05:36:48;;;;;;;9.40;8.40;;;;;;;15.46;100.00;99720.75;5030801;28;20204;-81
2022/06/28 05:39:19;;;;;;;10.93;8.13;;;;;;;15.55;100.00;99725.41;5027428;28;20201;-80
2022/06/28 05:41:50;;;;;;;13.60;9.47;;;;;;;15.51;100.00;99725.72;5027001;28;20194;-80
2022/06/28 05:44:20;;;;;;;14.73;10.97;;;;;;;15.56;100.00;99721.75;5031277;28;20198;-80
2022/06/28 05:46:51;;;;;;;11.70;10.50;;;;;;;15.72;100.00;99724.13;5028584;28;20222;-80
2022/06/28 05:49:20;;;;;;;14.83;11.13;;;;;;;15.82;100.00;99721.63;5030621;28;20213;-81
2022/06/28 05:51:48;;;;;;;12.23;10.80;;;;;;;15.79;100.00;99722.72;5043915;27;20227;-80
2022/06/28 05:54:18;;;;;;;10.87;9.57;;;;;;;15.82;100.00;99727.81;5029436;28;20216;-80
2022/06/28 05:56:46;;;;;;;11.47;10.27;;;;;;;15.91;100.00;99734.28;5030640;28;20217;-81
2022/06/28 05:59:14;;;;;;;16.03;10.10;;;;;;;16.00;100.00;99734.41;5030388;28;20205;-81
2022/06/28 06:01:42;;;;;;;11.77;10.57;;;;;;;16.00;100.00;99733.56;4989215;28;20199;-80
2022/06/28 06:04:12;;;;;;;11.37;8.47;;;;;;;16.15;100.00;99729.72;4986061;28;20647;-81
2022/06/28 06:06:40;;;;;;;9.67;8.23;;;;;;;16.14;100.00;99724.50;4985599;28;20211;-80
2022/06/28 06:09:08;;;;;;;8.17;7.47;;;;;;;16.37;100.00;99728.03;4986713;28;20662;-80
2022/06/28 06:11:38;;;;;;;12.00;8.50;;;;;;;16.25;100.00;99725.34;4991611;28;20199;-80
2022/06/28 06:14:06;;;;;;;9.43;8.50;;;;;;;16.39;100.00;99720.72;4986615;28;20199;-80
2022/06/28 06:16:34;;;;;;;9.23;8.10;;;;;;;16.50;100.00;99720.72;4986468;28;20261;-80
2022/06/28 06:19:03;;;;;;;10.60;7.40;;;;;;;16.66;100.00;99721.22;4992408;28;20198;-80
2022/06/28 06:21:31;;;;;;;8.87;7.97;;;;;;;16.50;100.00;99721.59;5030420;28;20201;-80
2022/06/28 06:23:59;;;;;;;10.43;7.40;;;;;;;16.52;100.00;99732.19;5030210;28;20190;-80
2022/06/28 06:26:28;;;;;;;8.67;6.90;;;;;;;16.82;100.00;99721.72;5029277;28;20192;-81
2022/06/28 06:28:58;;;;;;;7.73;6.17;;;;;;;16.98;100.00;99723.97;5026010;28;20250;-81
2022/06/28 06:31:26;;;;;;;6.53;5.37;;;;;;;17.15;100.00;99717.25;5030286;28;20213;-80
2022/06/28 06:33:55;;;;;;;6.67;4.33;;;;;;;17.25;100.00;99718.19;5044396;27;20209;-80
2022/06/28 06:36:23;;;;;;;4.70;4.30;;;;;;;17.32;100.00;99713.19;5026280;28;20201;-81
2022/06/28 06:38:51;;;;;;;5.80;4.03;;;;;;;17.37;100.00;99709.16;5030198;28;20197;-81
2022/06/28 06:41:19;;;;;;;4.97;3.23;;;;;;;17.39;100.00;99707.22;5030601;28;20217;-80
2022/06/28 06:43:48;;;;;;;3.97;3.50;;;;;;;17.47;100.00;99711.94;5033037;28;20209;-81
2022/06/28 06:46:17;;;;;;;3.77;3.07;;;;;;;17.70;100.00;99715.38;5038199;27;20190;-81
2022/06/28 06:48:50;;;;;;;5.00;3.43;;;;;;;17.54;100.00;99715.78;5028170;28;20201;-81
2022/06/28 06:51:19;;;;;;;4.27;3.30;;;;;;;17.89;100.00;99710.16;5039657;27;20225;-81
2022/06/28 06:53:47;;;;;;;4.03;3.63;;;;;;;18.01;100.00;99713.59;5033415;28;20258;-80
2022/06/28 06:56:15;;;;;;;3.80;3.33;;;;;;;18.14;100.00;99716.06;5033541;28;20204;-80
2022/06/28 06:58:44;;;;;;;4.10;3.60;;;;;;;18.14;100.00;99710.69;5032275;28;20288;-80
2022/06/28 07:01:12;;;;;;;4.27;3.47;;;;;;;18.18;100.00;99713.00;5033392;28;20194;-81
2022/06/28 07:04:02;;;;;;;5.00;3.73;;;;;;;17.80;100.00;99704.72;5033711;27;20197;-81
2022/06/28 07:06:31;;;;;;;8.37;4.33;;;;;;;17.80;100.00;99710.09;5030769;28;20198;-81
2022/06/28 07:08:59;;;;;;;3.40;3.10;;;;;;;18.00;100.00;99704.72;5030571;28;20198;-80
2022/06/28 07:11:27;;;;;;;4.17;3.03;;;;;;;18.15;100.00;99697.19;5032318;27;20707;-81
2022/06/28 07:13:56;;;;;;;4.27;3.23;;;;;;;18.16;100.00;99692.69;5029453;28;20656;-80
2022/06/28 07:16:24;;;;;;;7.27;3.73;;;;;;;18.31;100.00;99700.22;5039442;27;20193;-81
2022/06/28 07:18:57;;;;;;;4.80;3.30;;;;;;;18.53;100.00;99693.84;5030690;28;20201;-80
2022/06/28 07:21:28;;;;;;;3.47;2.70;;;;;;;18.55;100.00;99694.53;5032754;28;20264;-80
2022/06/28 07:23:56;;;;;;;3.37;2.70;;;;;;;18.67;100.00;99684.56;5032588;28;20209;-80
2022/06/28 07:26:25;;;;;;;3.57;2.70;;;;;;;18.09;100.00;99689.66;5031193;28;20197;-81
2022/06/28 07:28:53;;;;;;;4.20;2.70;;;;;;;18.57;100.00;99684.50;5033045;28;20316;-80
2022/06/28 07:31:21;;;;;;;3.20;2.60;;;;;;;18.83;100.00;99689.44;5030389;28;20245;-80
2022/06/28 07:33:50;;;;;;;5.10;3.27;;;;;;;18.82;100.00;99691.28;5036766;28;20189;-80
2022/06/28 07:36:18;;;;;;;3.60;3.23;;;;;;;18.56;100.00;99684.66;5031332;28;20205;-80
2022/06/28 07:38:48;;;;;;;4.13;3.70;;;;;;;18.38;100.00;99688.97;5028982;28;20208;-81
2022/06/28 07:41:16;;;;;;;6.43;3.10;;;;;;;18.57;100.00;99689.88;5032918;28;20220;-81
2022/06/28 07:43:44;;;;;;;3.37;2.70;;;;;;;18.52;100.00;99693.94;5031128;28;20201;-81
2022/06/28 07:46:13;;;;;;;4.70;2.30;;;;;;;19.08;100.00;99686.22;5032395;28;20198;-81
2022/06/28 07:48:42;;;;;;;3.83;2.53;;;;;;;19.05;100.00;99683.81;5007951;28;20748;-81
2022/06/28 07:53:57;;;;;;;5.33;2.33;;;;;;;19.36;100.00;99679.16;5012363;28;20289;-81
2022/06/28 07:56:26;;;;;;;4.20;2.60;;;;;;;19.48;100.00;99681.69;5010462;28;20205;-80
2022/06/28 07:58:54;;;;;;;10.53;2.43;;;;;;;19.73;100.00;99675.78;5020329;27;20210;-81
2022/06/28 08:01:23;;;;;;;4.10;1.90;;;;;;;19.66;100.00;99677.34;5013128;28;20210;-81
2022/06/28 08:03:51;;;;;;;5.37;2.30;;;;;;;19.73;100.00;99675.78;5012637;28;20198;-81
2022/06/28 08:06:19;;;;;;;5.70;2.33;;;;;;;19.60;100.00;99676.09;5012660;28;20197;-81
2022/06/28 08:08:48;;;;;;;2.97;2.43;;;;;;;19.88;100.00;99677.03;5012410;28;20210;-81
2022/06/28 08:11:17;;;;;;;4.20;2.67;;;;;;;19.91;100.00;99671.38;5017080;28;20222;-81
2022/06/28 08:13:48;;;;;;;5.03;2.53;;;;;;;20.01;100.00;99657.88;5012222;28;20202;-81
2022/06/28 08:16:16;;;;;;;6.23;2.40;;;;;;;20.30;100.00;99663.16;5012444;28;20254;-81
2022/06/28 08:18:45;;;;;;;5.90;2.50;;;;;;;20.41;100.00;99665.66;5013556;28;20206;-81
2022/06/28 08:21:20;;;;;;;2.93;1.30;;;;;;;20.18;100.00;99664.34;5008143;28;20229;-81
2022/06/28 08:23:48;;;;;;;6.27;1.40;;;;;;;20.00;100.00;99661.59;5012064;28;20452;-81
2022/06/28 08:26:18;;;;;;;2.80;1.50;;;;;;;20.00;100.00;99665.13;5005737;28;20220;-81
2022/06/28 08:28:46;;;;;;;3.73;1.93;;;;;;;19.98;100.00;99672.47;5010536;28;20206;-81
2022/06/28 08:31:14;;;;;;;6.80;2.00;;;;;;;20.25;100.00;99665.44;5011991;28;20226;-81
2022/06/28 08:33:42;;;;;;;3.40;1.93;;;;;;;20.16;100.00;99663.63;5012171;28;20229;-81
2022/06/28 08:36:12;;;;;;;2.93;1.80;;;;;;;20.47;100.00;99658.88;5008152;28;20297;-81
2022/06/28 08:38:40;;;;;;;2.10;1.33;;;;;;;20.68;98.74;99659.47;5007761;28;20282;-80
2022/06/28 08:41:10;;;;;;;3.63;1.53;;;;;;;20.86;96.45;99668.44;5012211;28;20194;-81
2022/06/28 08:43:41;;;;;;;3.63;1.60;;;;;;;20.81;95.61;99669.88;5006987;28;20251;-80
2022/06/28 08:46:09;;;;;;;2.70;1.33;;;;;;;21.41;93.36;99662.09;5008284;28;20202;-81
2022/06/28 08:48:42;;;;;;;3.23;1.40;;;;;;;21.12;80.63;99665.84;5032987;28;20226;-81
2022/06/28 08:51:11;;;;;;;3.47;1.10;;;;;;;21.36;80.51;99664.41;5048355;27;20210;-81
2022/06/28 08:53:40;;;;;;;4.07;1.70;;;;;;;21.50;88.18;99665.72;5031661;28;20657;-81
2022/06/28 08:56:09;;;;;;;3.27;1.83;;;;;;;21.57;90.16;99666.78;5028791;28;20209;-80
2022/06/28 08:58:42;;;;;;;3.80;1.47;;;;;;;21.48;89.60;99665.03;5027835;28;20653;-80
2022/06/28 09:01:11;;;;;;;5.33;1.60;;;;;;;21.51;87.67;99667.41;5031551;28;20213;-80
2022/06/28 09:03:39;;;;;;;4.80;1.40;;;;;;;21.25;88.26;99662.78;5031428;28;20551;-81
2022/06/28 09:06:08;;;;;;;3.80;1.53;;;;;;;21.45;86.07;99658.09;5025064;28;20206;-81
2022/06/28 09:08:36;;;;;;;3.57;1.30;;;;;;;21.67;85.68;99657.59;5028891;28;20205;-80
2022/06/28 09:11:04;;;;;;;3.30;1.40;;;;;;;21.57;84.97;99661.41;5031578;28;20241;-80
2022/06/28 09:13:36;;;;;;;2.73;1.50;;;;;;;21.59;88.18;99657.53;5030193;28;20201;-81
2022/06/28 09:16:06;;;;;;;3.30;1.60;;;;;;;21.85;88.97;99654.88;5031047;28;20186;-80
2022/06/28 09:18:45;;;;;;;2.23;1.30;;;;;;;21.90;84.43;99649.00;5031019;28;20198;-80
2022/06/28 09:21:15;;;;;;;2.47;1.30;;;;;;;22.09;87.63;99643.41;5031298;28;20720;-81
2022/06/28 09:23:45;;;;;;;4.65;1.50;;;;;;;22.40;82.29;99648.31;5031235;28;20210;-80
2022/06/28 09:26:18;;;;;;;4.15;1.70;;;;;;;22.39;80.49;99652.88;5031183;28;20201;-80
2022/06/28 09:28:49;;;;;;;1.63;1.37;;;;;;;22.27;79.04;99644.19;5034366;28;20215;-81
2022/06/28 09:31:22;;;;;;;4.05;1.40;;;;;;;22.85;73.35;99639.88;5024836;28;20230;-81
2022/06/28 09:34:05;;;;;;;2.22;1.48;;;;;;;23.09;69.43;99639.09;5026168;28;20206;-80
2022/06/28 09:36:35;;;;;;;3.38;1.40;;;;;;;23.09;65.07;99631.84;5028301;28;20202;-80
2022/06/28 09:39:15;;;;;;;1.92;1.10;;;;;;;23.12;62.17;99633.34;5025672;28;20216;-80
2022/06/28 09:41:48;;;;;;;2.90;1.20;;;;;;;22.77;68.26;99621.75;5029622;28;20369;-80
2022/06/28 09:44:36;;;;;;;2.08;1.00;;;;;;;22.87;62.26;99612.69;5031024;27;20644;-80
2022/06/28 09:47:08;;;;;;;2.83;1.20;;;;;;;22.82;68.82;99610.47;5036594;27;20229;-81
2022/06/28 09:49:43;;;;;;;2.40;1.25;;;;;;;23.19;65.09;99598.41;5030947;28;20197;-80
2022/06/28 09:52:12;;;;;;;2.45;1.15;;;;;;;23.51;62.11;99601.09;5030756;28;20220;-81
2022/06/28 09:54:43;;;;;;;3.55;1.20;;;;;;;23.63;58.37;99607.00;5030855;28;20283;-80
2022/06/28 09:57:13;;;;;;;3.50;0.88;;;;;;;23.29;56.72;99608.03;5028228;28;20198;-80
2022/06/28 09:59:42;;;;;;;2.20;0.90;;;;;;;22.61;61.03;99600.13;5030433;28;20285;-80
2022/06/28 10:02:17;;;;;;;1.90;0.90;;;;;;;22.64;65.06;99590.84;5030798;28;20272;-80
2022/06/28 10:04:46;;;;;;;2.58;1.20;;;;;;;23.26;61.47;99589.44;5029692;28;20193;-80
2022/06/28 10:07:16;;;;;;;2.05;1.05;;;;;;;23.69;59.59;99585.53;5030677;28;20678;-80
2022/06/28 10:09:45;;;;;;;2.30;1.00;;;;;;;23.92;66.65;99579.38;5026843;28;20198;-80
2022/06/28 10:15:04;;;;;;;1.60;0.98;;;;;;;24.15;65.81;99582.22;5030577;28;20189;-80
2022/06/28 10:17:47;;;;;;;1.38;1.05;;;;;;;24.31;61.18;99576.75;5032538;28;20214;-81
2022/06/28 10:20:20;;;;;;;2.42;0.90;;;;;;;23.91;61.70;99572.28;5029983;28;20193;-81
2022/06/28 10:22:48;;;;;;;2.30;1.00;;;;;;;24.25;63.34;99575.56;5030520;28;20193;-81
2022/06/28 10:25:25;;;;;;;2.67;1.00;;;;;;;24.24;66.38;99565.75;5030229;28;20232;-81
2022/06/28 10:27:54;;;;;;;1.65;1.10;;;;;;;24.71;63.73;99570.28;5067103;28;20201;-81
2022/06/28 10:30:29;;;;;;;1.70;1.15;;;;;;;24.91;64.16;99565.25;5068318;28;20199;-81
2022/06/28 10:33:04;;;;;;;1.58;1.15;;;;;;;24.75;62.90;99566.19;5065420;28;20224;-80
2022/06/28 10:36:12;;;;;;;1.45;0.90;;;;;;;24.45;61.08;99569.75;4988973;28;20202;-80
2022/06/28 10:39:15;;;;;;;1.90;0.90;;;;;;;24.95;62.36;99552.16;4982868;28;20199;-80
2022/06/28 10:41:44;;;;;;;2.90;1.10;;;;;;;24.96;61.67;99568.25;4986294;28;20213;-81
2022/06/28 10:44:15;;;;;;;1.88;0.90;;;;;;;25.07;58.01;99564.28;4989311;28;20194;-80
2022/06/28 10:46:50;;;;;;;1.75;1.00;;;;;;;25.65;56.90;99565.47;4987807;28;20230;-80
2022/06/28 10:49:22;;;;;;;1.35;0.77;;;;;;;25.48;49.51;99564.81;4987905;28;20225;-81
2022/06/28 10:52:10;;;;;;;1.67;0.77;;;;;;;26.22;46.34;99562.13;5003573;28;20257;-81
2022/06/28 10:54:40;;;;;;;1.48;0.80;;;;;;;25.67;50.54;99553.41;5068413;28;20189;-81
2022/06/28 10:57:20;;;;;;;1.27;0.70;;;;;;;26.11;47.69;99552.59;5069651;28;20203;-81
2022/06/28 10:59:50;;;;;;;0.70;0.70;;;;;;;26.42;44.90;99549.69;5048506;28;20236;-81
2022/06/28 11:02:19;;;;;;;1.17;0.70;;;;;;;26.69;43.99;99550.81;5029995;28;20194;-81
2022/06/28 11:05:09;;;;;;;0.82;0.65;;;;;;;26.43;42.53;99543.19;5033466;28;20410;-81
2022/06/28 11:07:41;;;;;;;1.92;0.77;;;;;;;26.71;44.76;99539.75;5028185;28;20228;-80
2022/06/28 11:10:13;;;;;;;1.40;0.80;;;;;;;26.86;46.52;99539.72;5034481;28;20206;-80
2022/06/28 11:12:43;;;;;;;2.80;0.85;;;;;;;26.66;44.89;99536.78;5027987;28;20266;-80
2022/06/28 11:15:13;;;;;;;2.72;0.80;;;;;;;26.62;46.06;99535.47;5033538;28;20205;-80
2022/06/28 11:17:43;;;;;;;1.67;0.90;;;;;;;27.05;44.43;99529.06;5005574;28;20199;-81
2022/06/28 11:20:15;;;;;;;1.83;1.05;;;;;;;26.42;45.42;99530.66;5002088;28;20197;-81
2022/06/28 11:22:45;;;;;;;1.40;0.90;;;;;;;27.16;44.86;99527.69;5002585;28;20194;-80
2022/06/28 11:25:15;;;;;;;0.93;0.82;;;;;;;27.42;43.76;99520.78;5007886;28;20201;-81
2022/06/28 11:27:46;;;;;;;1.92;0.98;;;;;;;26.77;45.34;99511.81;5002481;28;20681;-80
2022/06/28 11:30:16;;;;;;;1.00;0.75;;;;;;;27.08;43.62;99498.75;5008726;28;20191;-81
2022/06/28 11:32:48;;;;;;;0.90;0.70;;;;;;;25.64;47.95;99499.50;5011062;28;20382;-81
2022/06/28 11:35:20;;;;;;;3.10;0.90;;;;;;;26.41;50.43;99490.09;5011953;28;20202;-80
2022/06/28 11:37:53;;;;;;;2.50;1.00;;;;;;;26.97;45.90;99485.66;5032366;28;20220;-81
2022/06/28 11:40:26;;;;;;;1.65;0.80;;;;;;;27.42;45.71;99490.84;5026814;28;20202;-80
2022/06/28 11:43:02;;;;;;;1.67;1.00;;;;;;;26.52;48.34;99489.59;5038053;27;20198;-80
2022/06/28 11:45:32;;;;;;;1.77;0.90;;;;;;;27.60;46.30;99478.41;5037623;28;20216;-81
2022/06/28 11:48:04;;;;;;;1.88;1.00;;;;;;;27.98;45.11;99471.72;5031214;28;20246;-81
2022/06/28 11:50:41;;;;;;;1.55;0.80;;;;;;;27.75;44.58;99469.31;5030104;28;20224;-81
2022/06/28 11:53:11;;;;;;;2.97;1.00;;;;;;;27.53;45.15;99471.25;5032648;28;20218;-81